createdAt,value
2018-07-27T00:00:28.216Z,5.13
2018-07-27T00:02:55.682Z,4.70
2018-07-27T00:05:23.244Z,4.60
2018-07-27T00:07:50.808Z,4.67
2018-07-27T00:10:18.372Z,5.00
2018-07-27T00:12:45.841Z,6.47
2018-07-27T00:15:13.307Z,5.03
2018-07-27T00:17:40.770Z,5.73
2018-07-27T00:20:08.229Z,5.17
2018-07-27T00:22:35.696Z,5.90
2018-07-27T00:25:03.175Z,5.57
2018-07-27T00:27:30.726Z,6.20
2018-07-27T00:29:58.176Z,5.33
2018-07-27T00:32:25.623Z,5.00
2018-07-27T00:34:53.093Z,5.80
2018-07-27T00:37:21.450Z,5.10
2018-07-27T00:39:48.941Z,5.43
2018-07-27T00:42:16.504Z,4.43
2018-07-27T00:44:43.979Z,4.40
2018-07-27T00:47:12.193Z,4.47
2018-07-27T00:49:40.434Z,4.67
2018-07-27T00:52:08.004Z,4.47
2018-07-27T00:54:36.271Z,4.73
2018-07-27T00:57:03.735Z,7.67
2018-07-27T00:59:31.190Z,4.53
2018-07-27T01:01:58.640Z,3.87
2018-07-27T01:04:26.132Z,4.13
2018-07-27T01:06:53.684Z,5.50
2018-07-27T01:09:21.255Z,3.80
2018-07-27T01:11:48.811Z,3.80
2018-07-27T01:14:16.382Z,3.87
2018-07-27T01:16:43.937Z,4.20
2018-07-27T01:19:11.403Z,4.47
2018-07-27T01:21:40.045Z,3.87
2018-07-27T01:24:07.589Z,3.60
2018-07-27T01:26:35.843Z,3.50
2018-07-27T01:29:03.403Z,5.77
2018-07-27T01:31:30.866Z,3.00
2018-07-27T01:33:58.316Z,3.87
2018-07-27T01:36:25.787Z,3.47
2018-07-27T01:38:53.240Z,3.43
2018-07-27T01:41:20.774Z,4.23
2018-07-27T01:43:48.271Z,4.60
2018-07-27T01:46:15.719Z,3.00
2018-07-27T01:48:43.181Z,3.13
2018-07-27T01:51:10.646Z,3.77
2018-07-27T01:53:38.093Z,4.00
2018-07-27T01:56:05.557Z,3.40
2018-07-27T01:58:33.014Z,3.30
2018-07-27T02:01:00.502Z,3.10
2018-07-27T02:03:27.978Z,3.20
2018-07-27T02:05:55.435Z,2.60
2018-07-27T02:08:22.999Z,3.17
2018-07-27T02:10:50.467Z,3.40
2018-07-27T02:13:17.936Z,2.90
2018-07-27T02:15:45.395Z,2.80
2018-07-27T02:18:12.852Z,3.00
2018-07-27T02:20:40.310Z,4.73
2018-07-27T02:23:07.886Z,3.23
2018-07-27T02:25:36.119Z,3.23
2018-07-27T02:28:03.617Z,4.57
2018-07-27T02:30:31.187Z,3.20
2018-07-27T02:32:58.757Z,3.50
2018-07-27T02:35:26.202Z,2.87
2018-07-27T02:37:53.780Z,3.03
2018-07-27T02:40:21.232Z,2.80
2018-07-27T02:42:48.705Z,2.87
2018-07-27T02:45:16.171Z,2.67
2018-07-27T02:47:43.644Z,2.47
2018-07-27T02:50:11.189Z,5.00
2018-07-27T02:52:38.637Z,2.60
2018-07-27T02:55:06.109Z,2.27
2018-07-27T02:57:33.555Z,2.60
2018-07-27T03:00:01.050Z,3.63
2018-07-27T03:02:28.490Z,2.73
2018-07-27T03:04:56.069Z,2.93
2018-07-27T03:07:23.530Z,3.30
2018-07-27T03:09:51.141Z,4.77
2018-07-27T03:12:18.652Z,2.70
2018-07-27T03:14:46.111Z,2.80
2018-07-27T03:17:13.948Z,2.90
2018-07-27T03:19:41.407Z,4.63
2018-07-27T03:22:08.873Z,2.60
2018-07-27T03:24:36.329Z,3.73
2018-07-27T03:27:03.794Z,4.93
2018-07-27T03:29:31.303Z,2.60
2018-07-27T03:31:58.869Z,3.50
2018-07-27T03:34:27.832Z,2.47
2018-07-27T03:36:55.319Z,3.10
2018-07-27T03:39:22.789Z,2.83
2018-07-27T03:41:50.345Z,2.53
2018-07-27T03:44:17.812Z,3.30
2018-07-27T03:46:45.267Z,2.83
2018-07-27T03:49:12.719Z,2.87
2018-07-27T03:51:40.202Z,3.40
2018-07-27T03:54:08.642Z,2.77
2018-07-27T03:56:36.142Z,3.00
2018-07-27T03:59:03.717Z,3.23
2018-07-27T04:01:31.164Z,3.20
2018-07-27T04:03:58.733Z,2.77
2018-07-27T04:06:26.203Z,2.40
2018-07-27T04:08:53.656Z,2.40
2018-07-27T04:11:21.127Z,2.63
2018-07-27T04:13:48.576Z,2.57
2018-07-27T04:16:16.040Z,2.53
2018-07-27T04:18:43.504Z,2.67
2018-07-27T04:21:10.973Z,2.93
2018-07-27T04:23:38.441Z,3.80
2018-07-27T04:26:05.892Z,2.53
2018-07-27T04:28:33.361Z,3.10
2018-07-27T04:31:00.800Z,2.40
2018-07-27T04:33:28.269Z,2.47
2018-07-27T04:35:55.753Z,3.37
2018-07-27T04:38:23.219Z,2.30
2018-07-27T04:40:50.685Z,3.17
2018-07-27T04:43:18.942Z,2.83
2018-07-27T04:45:46.409Z,2.63
2018-07-27T04:48:13.871Z,6.33
2018-07-27T04:50:41.441Z,2.60
2018-07-27T04:53:08.905Z,3.07
2018-07-27T04:55:36.475Z,2.70
2018-07-27T04:58:03.976Z,2.57
2018-07-27T05:00:32.192Z,3.30
2018-07-27T05:02:59.653Z,3.53
2018-07-27T05:05:27.125Z,2.67
2018-07-27T05:07:54.575Z,2.70
2018-07-27T05:10:22.050Z,3.27
2018-07-27T05:12:49.683Z,3.77
2018-07-27T05:15:17.143Z,2.80
2018-07-27T05:17:44.614Z,2.60
2018-07-27T05:20:12.133Z,2.80
2018-07-27T05:22:39.607Z,2.10
2018-07-27T05:25:07.852Z,2.50
2018-07-27T05:27:35.311Z,3.17
2018-07-27T05:30:02.881Z,2.13
2018-07-27T05:32:30.327Z,2.30
2018-07-27T05:34:57.785Z,3.67
2018-07-27T05:37:25.248Z,3.17
2018-07-27T05:39:52.730Z,3.20
2018-07-27T05:42:20.759Z,2.80
2018-07-27T05:44:48.225Z,2.83
2018-07-27T05:47:16.986Z,3.23
2018-07-27T05:49:45.824Z,2.80
2018-07-27T05:52:13.272Z,3.93
2018-07-27T05:54:40.736Z,5.30
2018-07-27T05:57:08.193Z,2.03
2018-07-27T05:59:35.697Z,2.30
2018-07-27T06:02:03.156Z,2.57
2018-07-27T06:04:30.612Z,3.07
2018-07-27T06:06:58.083Z,2.77
2018-07-27T06:09:25.645Z,3.27
2018-07-27T06:11:53.208Z,3.67
2018-07-27T06:14:20.691Z,3.87
2018-07-27T06:16:48.168Z,2.97
2018-07-27T06:19:15.625Z,2.97
2018-07-27T06:21:43.877Z,3.37
2018-07-27T06:24:11.378Z,4.10
2018-07-27T06:26:38.793Z,2.40
2018-07-27T06:29:06.274Z,2.57
2018-07-27T06:31:33.731Z,2.97
2018-07-27T06:34:01.198Z,2.97
2018-07-27T06:36:29.416Z,2.83
2018-07-27T06:38:57.645Z,4.87
2018-07-27T06:41:25.137Z,3.17
2018-07-27T06:43:52.616Z,4.60
2018-07-27T06:46:20.866Z,3.77
2018-07-27T06:48:49.144Z,2.53
2018-07-27T06:51:16.603Z,2.70
2018-07-27T06:53:45.588Z,2.80
2018-07-27T06:56:13.056Z,5.27
2018-07-27T06:58:40.519Z,4.67
2018-07-27T07:01:07.984Z,3.90
2018-07-27T07:03:35.597Z,3.00
2018-07-27T07:06:03.018Z,2.63
2018-07-27T07:08:31.174Z,3.70
2018-07-27T07:10:58.628Z,3.17
2018-07-27T07:13:26.080Z,2.80
2018-07-27T07:15:53.581Z,2.63
2018-07-27T07:18:21.158Z,4.37
2018-07-27T07:20:50.122Z,2.90
2018-07-27T07:23:17.581Z,2.93
2018-07-27T07:25:45.195Z,3.70
2018-07-27T07:28:12.529Z,3.20
2018-07-27T07:30:39.992Z,4.20
2018-07-27T07:33:07.560Z,2.53
2018-07-27T07:35:35.115Z,4.97
2018-07-27T07:38:02.586Z,3.77
2018-07-27T07:40:30.036Z,3.40
2018-07-27T07:42:57.494Z,2.37
2018-07-27T07:45:25.016Z,3.47
2018-07-27T07:47:52.502Z,3.53
2018-07-27T07:50:19.997Z,3.80
2018-07-27T07:52:47.471Z,7.73
2018-07-27T07:55:14.928Z,2.77
2018-07-27T07:57:42.482Z,2.57
2018-07-27T08:00:09.943Z,3.97
2018-07-27T08:02:37.397Z,2.47
2018-07-27T08:05:04.870Z,2.40
2018-07-27T08:07:33.145Z,3.03
2018-07-27T08:10:00.615Z,5.03
2018-07-27T08:12:28.195Z,2.60
2018-07-27T08:14:55.740Z,3.83
2018-07-27T08:17:23.306Z,3.57
2018-07-27T08:19:50.751Z,5.23
2018-07-27T08:22:18.234Z,3.10
2018-07-27T08:24:45.692Z,3.57
2018-07-27T08:27:13.247Z,5.00
2018-07-27T08:29:40.698Z,2.77
2018-07-27T08:32:08.188Z,2.43
2018-07-27T08:34:35.649Z,4.23
2018-07-27T08:37:03.114Z,3.60
2018-07-27T08:39:30.585Z,3.20
2018-07-27T08:41:58.045Z,3.37
2018-07-27T08:44:25.494Z,3.33
2018-07-27T08:46:53.728Z,3.30
2018-07-27T08:49:21.175Z,3.10
2018-07-27T08:51:49.388Z,3.03
2018-07-27T08:54:16.852Z,3.07
2018-07-27T08:56:44.304Z,3.00
2018-07-27T08:59:11.763Z,3.23
2018-07-27T09:01:39.216Z,3.63
2018-07-27T09:04:06.995Z,4.07
2018-07-27T09:06:34.497Z,3.28
2018-07-27T09:09:02.057Z,4.70
2018-07-27T09:11:29.517Z,2.87
2018-07-27T09:13:57.093Z,3.03
2018-07-27T09:16:24.557Z,3.57
2018-07-27T09:18:52.028Z,3.37
2018-07-27T09:21:19.581Z,2.83
2018-07-27T09:23:47.039Z,3.07
2018-07-27T09:26:14.521Z,2.57
2018-07-27T09:28:41.967Z,3.20
2018-07-27T09:31:09.427Z,3.00
2018-07-27T09:33:36.888Z,3.40
2018-07-27T09:36:04.536Z,3.13
2018-07-27T09:38:32.132Z,3.00
2018-07-27T09:41:00.664Z,2.77
2018-07-27T09:43:28.149Z,2.63
2018-07-27T09:45:55.650Z,4.23
2018-07-27T09:48:23.201Z,3.20
2018-07-27T09:50:50.754Z,3.33
2018-07-27T09:53:18.788Z,3.40
2018-07-27T09:55:46.255Z,3.27
2018-07-27T09:58:14.648Z,4.77
2018-07-27T10:00:42.120Z,4.37
2018-07-27T10:03:09.592Z,2.67
2018-07-27T10:05:37.580Z,3.93
2018-07-27T10:08:05.316Z,3.90
2018-07-27T10:10:32.775Z,4.60
2018-07-27T10:13:00.288Z,5.40
2018-07-27T10:15:27.890Z,2.93
2018-07-27T10:17:56.077Z,2.70
2018-07-27T10:20:23.535Z,5.10
2018-07-27T10:22:51.007Z,3.70
2018-07-27T10:25:18.464Z,3.27
2018-07-27T10:27:45.922Z,3.93
2018-07-27T10:30:13.425Z,3.50
2018-07-27T10:32:40.909Z,3.87
2018-07-27T10:35:08.371Z,3.57
2018-07-27T10:37:36.605Z,3.37
2018-07-27T10:40:04.076Z,4.33
2018-07-27T10:42:31.651Z,3.30
2018-07-27T10:44:59.227Z,4.60
2018-07-27T10:47:26.679Z,4.07
2018-07-27T10:49:54.154Z,3.67
2018-07-27T10:52:21.665Z,3.70
2018-07-27T10:54:49.166Z,3.30
2018-07-27T10:57:16.615Z,3.30
2018-07-27T10:59:44.313Z,4.10
2018-07-27T11:02:13.272Z,2.73
2018-07-27T11:04:40.738Z,2.60
2018-07-27T11:07:08.215Z,2.97
2018-07-27T11:09:35.777Z,3.27
2018-07-27T11:12:03.241Z,3.00
2018-07-27T11:14:30.692Z,3.10
2018-07-27T11:16:59.405Z,3.07
2018-07-27T11:19:26.849Z,2.47
2018-07-27T11:21:54.314Z,3.40
2018-07-27T11:24:21.763Z,4.97
2018-07-27T11:26:49.242Z,5.00
2018-07-27T11:29:16.713Z,3.50
2018-07-27T11:31:44.171Z,6.23
2018-07-27T11:34:11.614Z,2.70
2018-07-27T11:36:40.117Z,2.40
2018-07-27T11:39:07.581Z,3.30
2018-07-27T11:41:35.142Z,2.60
2018-07-27T11:44:02.611Z,2.70
2018-07-27T11:46:30.063Z,2.60
2018-07-27T11:48:57.633Z,3.50
2018-07-27T11:51:25.187Z,2.30
2018-07-27T11:53:52.662Z,2.80
2018-07-27T11:56:20.105Z,2.47
2018-07-27T11:58:47.586Z,2.97
2018-07-27T12:01:15.185Z,2.57
2018-07-27T12:03:42.618Z,3.23
2018-07-27T12:06:10.172Z,2.53
2018-07-27T12:08:37.631Z,2.87
2018-07-27T12:11:05.091Z,3.00
2018-07-27T12:13:32.541Z,2.73
2018-07-27T12:16:00.022Z,3.67
2018-07-27T12:18:27.547Z,3.62
2018-07-27T12:20:55.297Z,2.83
2018-07-27T12:23:22.611Z,3.97
2018-07-27T12:25:50.094Z,2.10
2018-07-27T12:28:18.370Z,2.30
2018-07-27T12:30:46.136Z,4.67
2018-07-27T12:33:13.594Z,2.77
2018-07-27T12:35:41.047Z,2.30
2018-07-27T12:38:08.511Z,2.20
2018-07-27T12:40:35.967Z,2.97
2018-07-27T12:43:03.535Z,2.57
2018-07-27T12:45:31.108Z,2.40
2018-07-27T12:47:58.566Z,3.67
2018-07-27T12:50:26.019Z,2.70
2018-07-27T12:52:53.479Z,2.50
2018-07-27T12:55:22.450Z,2.17
2018-07-27T12:57:49.900Z,2.40
2018-07-27T13:00:17.411Z,3.10
2018-07-27T13:02:44.987Z,2.63
2018-07-27T13:05:12.479Z,4.20
2018-07-27T13:07:40.704Z,3.97
2018-07-27T13:10:08.164Z,2.40
2018-07-27T13:12:35.627Z,2.90
2018-07-27T13:15:03.126Z,2.50
2018-07-27T13:17:30.585Z,2.47
2018-07-27T13:19:58.836Z,2.13
2018-07-27T13:22:26.319Z,3.30
2018-07-27T13:27:21.219Z,3.57
2018-07-27T13:29:48.701Z,2.50
2018-07-27T13:32:16.568Z,3.00
2018-07-27T13:34:44.036Z,2.40
2018-07-27T13:37:11.867Z,3.33
2018-07-27T13:39:39.352Z,2.60
2018-07-27T13:42:07.551Z,4.33
2018-07-27T13:44:36.553Z,2.43
2018-07-27T13:47:04.121Z,2.93
2018-07-27T13:49:31.562Z,2.53
2018-07-27T13:51:59.030Z,2.83
2018-07-27T13:54:26.627Z,2.80
2018-07-27T13:56:54.072Z,3.30
2018-07-27T13:59:21.626Z,2.83
2018-07-27T14:01:49.186Z,2.60
2018-07-27T14:04:16.636Z,2.50
2018-07-27T14:06:44.095Z,3.07
2018-07-27T14:09:11.572Z,2.73
2018-07-27T14:11:39.094Z,5.20
2018-07-27T14:14:06.534Z,2.47
2018-07-27T14:16:34.762Z,4.30
2018-07-27T14:19:03.061Z,3.70
2018-07-27T14:21:30.650Z,3.73
2018-07-27T14:23:58.079Z,2.80
2018-07-27T14:26:25.534Z,3.30
2018-07-27T14:28:52.992Z,2.90
2018-07-27T14:31:20.451Z,3.13
2018-07-27T14:33:47.944Z,2.87
2018-07-27T14:36:15.500Z,3.23
2018-07-27T14:38:42.951Z,2.87
2018-07-27T14:41:10.429Z,2.57
2018-07-27T14:43:39.423Z,2.77
2018-07-27T14:46:06.994Z,2.97
2018-07-27T14:48:35.963Z,2.33
2018-07-27T14:51:04.162Z,5.03
2018-07-27T14:53:31.617Z,2.13
2018-07-27T14:55:59.079Z,3.23
2018-07-27T14:58:26.536Z,2.50
2018-07-27T15:00:54.008Z,2.87
2018-07-27T15:03:21.567Z,2.43
2018-07-27T15:05:49.017Z,2.37
2018-07-27T15:08:16.495Z,2.83
2018-07-27T15:10:44.063Z,2.23
2018-07-27T15:13:11.520Z,2.60
2018-07-27T15:15:38.992Z,2.53
2018-07-27T15:18:06.467Z,2.30
2018-07-27T15:20:33.933Z,2.60
2018-07-27T15:23:01.379Z,2.33
2018-07-27T15:25:28.949Z,2.30
2018-07-27T15:27:56.442Z,4.07
2018-07-27T15:30:23.961Z,2.50
2018-07-27T15:32:51.419Z,2.90
2018-07-27T15:35:18.982Z,2.67
2018-07-27T15:37:46.507Z,2.60
2018-07-27T15:40:14.015Z,2.47
2018-07-27T15:42:41.479Z,2.70
2018-07-27T15:45:08.936Z,3.93
2018-07-27T15:47:36.412Z,3.13
2018-07-27T15:50:04.635Z,2.23
2018-07-27T15:52:32.148Z,2.87
2018-07-27T15:54:59.603Z,2.50
2018-07-27T15:57:27.170Z,2.97
2018-07-27T15:59:54.644Z,2.67
2018-07-27T16:02:22.867Z,2.70
2018-07-27T16:04:50.383Z,2.87
2018-07-27T16:07:17.855Z,2.70
2018-07-27T16:09:45.414Z,2.83
2018-07-27T16:12:12.881Z,2.70
2018-07-27T16:14:40.328Z,2.57
2018-07-27T16:17:07.792Z,4.73
2018-07-27T16:19:35.352Z,5.83
2018-07-27T16:22:02.799Z,7.83
2018-07-27T16:24:30.279Z,16.10
2018-07-27T16:26:57.748Z,22.73
2018-07-27T16:29:25.194Z,19.90
2018-07-27T16:31:52.659Z,10.33
2018-07-27T16:34:20.151Z,9.20
2018-07-27T16:36:47.680Z,6.73
2018-07-27T16:39:15.149Z,3.70
2018-07-27T16:41:42.701Z,4.47
2018-07-27T16:44:10.185Z,11.77
2018-07-27T16:46:38.219Z,9.60
2018-07-27T16:49:05.662Z,7.37
2018-07-27T16:51:33.123Z,6.70
2018-07-27T16:54:01.353Z,5.73
2018-07-27T16:56:28.830Z,4.70
2018-07-27T16:58:56.393Z,3.63
2018-07-27T17:01:23.947Z,3.50
2018-07-27T17:03:51.511Z,3.63
2018-07-27T17:06:19.761Z,3.03
2018-07-27T17:08:47.974Z,3.37
2018-07-27T17:11:15.431Z,6.10
2018-07-27T17:13:42.901Z,5.03
2018-07-27T17:16:10.357Z,3.53
2018-07-27T17:18:37.820Z,2.87
2018-07-27T17:21:05.386Z,2.93
2018-07-27T17:23:32.948Z,4.63
2018-07-27T17:26:00.415Z,2.63
2018-07-27T17:28:27.881Z,3.27
2018-07-27T17:30:55.332Z,3.33
2018-07-27T17:33:22.779Z,2.50
2018-07-27T17:35:50.240Z,2.47
2018-07-27T17:38:17.692Z,2.60
2018-07-27T17:40:45.151Z,2.90
2018-07-27T17:43:12.602Z,3.27
2018-07-27T17:45:40.071Z,4.33
2018-07-27T17:48:07.537Z,2.90
2018-07-27T17:50:35.043Z,3.03
2018-07-27T17:53:02.511Z,2.97
2018-07-27T17:55:29.960Z,3.70
2018-07-27T17:57:57.416Z,4.70
2018-07-27T18:00:24.863Z,2.73
2018-07-27T18:02:52.329Z,3.43
2018-07-27T18:05:19.774Z,5.97
2018-07-27T18:07:47.279Z,3.73
2018-07-27T18:10:14.691Z,2.57
2018-07-27T18:12:42.160Z,2.87
2018-07-27T18:15:09.653Z,2.53
2018-07-27T18:17:37.117Z,4.40
2018-07-27T18:20:04.689Z,4.20
2018-07-27T18:22:32.248Z,2.37
2018-07-27T18:24:59.708Z,2.50
2018-07-27T18:27:27.162Z,3.47
2018-07-27T18:29:54.626Z,2.33
2018-07-27T18:32:22.165Z,2.97
2018-07-27T18:34:49.673Z,2.53
2018-07-27T18:37:17.123Z,3.47
2018-07-27T18:39:44.628Z,3.90
2018-07-27T18:42:13.892Z,2.80
2018-07-27T18:44:41.415Z,5.10
2018-07-27T18:47:08.851Z,3.80
2018-07-27T18:49:37.086Z,3.33
2018-07-27T18:52:04.520Z,2.63
2018-07-27T18:54:32.024Z,2.60
2018-07-27T18:56:59.498Z,3.10
2018-07-27T18:59:26.957Z,3.07
2018-07-27T19:01:55.187Z,3.53
2018-07-27T19:04:22.688Z,4.18
2018-07-27T19:06:50.260Z,3.40
2018-07-27T19:09:17.820Z,2.73
2018-07-27T19:11:45.282Z,3.87
2018-07-27T19:14:12.753Z,2.40
2018-07-27T19:16:40.230Z,2.50
2018-07-27T19:19:09.164Z,2.60
2018-07-27T19:21:36.619Z,2.63
2018-07-27T19:24:04.085Z,2.20
2018-07-27T19:26:31.541Z,2.90
2018-07-27T19:28:59.046Z,3.37
2018-07-27T19:31:26.624Z,2.70
2018-07-27T19:33:54.172Z,4.07
2018-07-27T19:36:21.625Z,4.43
2018-07-27T19:38:49.089Z,4.23
2018-07-27T19:41:16.545Z,2.67
2018-07-27T19:43:44.010Z,2.50
2018-07-27T19:46:11.483Z,2.30
2018-07-27T19:48:39.060Z,2.67
2018-07-27T19:51:06.517Z,3.07
2018-07-27T19:53:34.087Z,2.50
2018-07-27T19:56:01.558Z,2.57
2018-07-27T19:58:29.015Z,2.30
2018-07-27T20:00:56.577Z,2.50
2018-07-27T20:03:24.056Z,2.60
2018-07-27T20:05:52.313Z,2.40
2018-07-27T20:08:19.766Z,2.80
2018-07-27T20:10:47.399Z,4.17
2018-07-27T20:13:14.802Z,3.60
2018-07-27T20:15:42.259Z,2.40
2018-07-27T20:18:09.823Z,3.00
2018-07-27T20:20:37.291Z,2.57
2018-07-27T20:23:04.855Z,2.57
2018-07-27T20:25:33.078Z,2.40
2018-07-27T20:28:00.612Z,2.10
2018-07-27T20:30:28.124Z,2.70
2018-07-27T20:32:55.631Z,2.57
2018-07-27T20:35:23.189Z,2.53
2018-07-27T20:37:51.580Z,2.57
2018-07-27T20:40:19.038Z,2.33
2018-07-27T20:42:46.507Z,3.73
2018-07-27T20:45:13.966Z,2.53
2018-07-27T20:47:41.520Z,2.53
2018-07-27T20:50:09.085Z,2.30
2018-07-27T20:52:36.561Z,2.47
2018-07-27T20:55:04.012Z,2.20
2018-07-27T20:57:31.466Z,2.23
2018-07-27T20:59:59.704Z,2.30
2018-07-27T21:02:27.216Z,2.13
2018-07-27T21:04:54.785Z,2.23
2018-07-27T21:07:22.251Z,2.23
2018-07-27T21:09:50.554Z,2.50
2018-07-27T21:12:18.007Z,2.30
2018-07-27T21:14:45.458Z,2.20
2018-07-27T21:17:12.930Z,2.17
2018-07-27T21:19:40.412Z,2.20
2018-07-27T21:22:08.636Z,2.03
2018-07-27T21:24:36.117Z,2.87
2018-07-27T21:27:03.671Z,4.67
2018-07-27T21:29:31.158Z,2.00
2018-07-27T21:31:58.627Z,4.13
2018-07-27T21:34:26.179Z,2.97
2018-07-27T21:36:53.655Z,2.20
2018-07-27T21:39:21.124Z,3.10
2018-07-27T21:41:48.656Z,4.97
2018-07-27T21:44:16.227Z,2.83
2018-07-27T21:46:43.781Z,3.57
2018-07-27T21:49:11.259Z,2.53
2018-07-27T21:51:38.867Z,2.40
2018-07-27T21:54:06.294Z,2.30
2018-07-27T21:56:34.576Z,3.23
2018-07-27T21:59:02.136Z,2.50
2018-07-27T22:01:29.601Z,2.43
2018-07-27T22:03:57.055Z,2.83
2018-07-27T22:06:24.617Z,2.30
2018-07-27T22:08:52.177Z,3.57
2018-07-27T22:11:19.655Z,6.33
2018-07-27T22:13:47.863Z,3.37
2018-07-27T22:16:15.387Z,4.17
2018-07-27T22:18:42.842Z,3.10
2018-07-27T22:21:10.315Z,2.60
2018-07-27T22:23:37.774Z,5.00
2018-07-27T22:26:05.264Z,3.40
2018-07-27T22:28:33.505Z,3.67
2018-07-27T22:31:00.959Z,5.27
2018-07-27T22:33:29.106Z,4.57
2018-07-27T22:35:56.611Z,3.40
2018-07-27T22:38:24.172Z,3.00
2018-07-27T22:40:51.648Z,6.10
2018-07-27T22:43:19.114Z,3.30
2018-07-27T22:45:47.341Z,5.83
2018-07-27T22:48:14.810Z,3.33
2018-07-27T22:50:42.321Z,4.53
2018-07-27T22:53:09.782Z,4.03
2018-07-27T22:55:37.260Z,4.37
2018-07-27T22:58:05.504Z,5.23
2018-07-27T23:00:32.986Z,3.60
2018-07-27T23:03:00.468Z,5.40
2018-07-27T23:05:28.702Z,4.60
2018-07-27T23:07:56.211Z,6.17
2018-07-27T23:10:23.665Z,5.20
2018-07-27T23:12:51.137Z,4.67
2018-07-27T23:15:19.324Z,3.77
2018-07-27T23:17:46.854Z,5.97
2018-07-27T23:20:14.304Z,3.43
2018-07-27T23:22:41.766Z,6.13
2018-07-27T23:25:09.246Z,5.90
2018-07-27T23:27:37.473Z,5.93
2018-07-27T23:30:04.920Z,5.40
2018-07-27T23:32:32.390Z,5.07
2018-07-27T23:34:59.845Z,8.70
2018-07-27T23:37:27.302Z,5.47
2018-07-27T23:39:54.770Z,7.20
2018-07-27T23:42:23.397Z,6.43
2018-07-27T23:44:50.857Z,5.23
2018-07-27T23:47:18.296Z,7.00
2018-07-27T23:49:45.760Z,6.00
2018-07-27T23:52:13.230Z,5.80
2018-07-27T23:54:40.679Z,7.13
2018-07-27T23:57:08.137Z,4.07
2018-07-27T23:59:35.585Z,7.37
